createdAt,value
2022-10-18T14:36:19.293Z,44.90
2022-10-18T14:38:23.085Z,45.50
2022-10-18T14:40:42.894Z,44.95
2022-10-18T14:42:55.293Z,44.41
2022-10-18T14:44:57.024Z,44.61
2022-10-18T14:47:11.873Z,44.52
2022-10-18T14:49:22.336Z,44.34
2022-10-18T14:51:24.737Z,44.42
2022-10-18T14:53:35.909Z,45.20
2022-10-18T14:55:45.350Z,44.62
2022-10-18T14:57:47.304Z,44.28
2022-10-18T14:59:57.047Z,44.32
2022-10-18T15:02:08.337Z,44.13
2022-10-18T15:04:11.803Z,44.48
2022-10-18T15:06:22.351Z,44.92
2022-10-18T15:08:33.445Z,44.95
2022-10-18T15:10:35.584Z,44.80
2022-10-18T15:13:04.293Z,45.61
2022-10-18T15:15:09.358Z,46.08
2022-10-18T15:17:23.964Z,44.90
2022-10-18T15:19:39.508Z,44.76
2022-10-18T15:22:31.257Z,44.16
2022-10-18T15:24:26.893Z,44.71
2022-10-18T15:26:30.585Z,44.45
2022-10-18T15:28:46.407Z,45.05
2022-10-18T15:30:48.067Z,45.59
2022-10-18T15:32:52.732Z,45.68
2022-10-18T15:35:01.383Z,44.96
2022-10-18T15:37:16.690Z,46.03
2022-10-18T15:39:23.878Z,45.50
2022-10-18T15:41:50.413Z,45.19
2022-10-18T15:43:52.014Z,44.45
2022-10-18T15:46:00.061Z,44.86
2022-10-18T15:48:17.384Z,45.23
2022-10-18T15:50:35.474Z,45.22
2022-10-18T15:52:40.737Z,44.37
2022-10-18T15:56:56.653Z,45.83
2022-10-18T15:59:07.424Z,45.43
2022-10-18T16:01:22.712Z,47.07
2022-10-18T16:03:25.207Z,45.97
2022-10-18T16:05:33.434Z,45.46
2022-10-18T16:07:35.392Z,45.32
2022-10-18T16:09:37.612Z,46.66
2022-10-18T16:11:45.465Z,45.87
2022-10-18T16:13:47.456Z,45.44
2022-10-18T16:15:49.153Z,46.41
2022-10-18T16:17:57.442Z,46.01
2022-10-18T16:19:59.087Z,45.17
2022-10-18T16:22:05.978Z,44.71
2022-10-18T16:24:15.444Z,44.89
2022-10-18T16:26:19.142Z,45.34
2022-10-18T16:28:24.404Z,45.69
2022-10-18T16:30:39.484Z,45.22
2022-10-18T16:32:41.144Z,45.44
2022-10-18T16:34:42.748Z,45.93
2022-10-18T16:36:51.464Z,46.01
2022-10-18T16:38:55.443Z,45.74
2022-10-18T16:40:59.872Z,46.33
2022-10-18T16:43:08.470Z,47.03
2022-10-18T16:45:10.212Z,46.70
2022-10-18T16:47:18.505Z,48.67
2022-10-18T16:49:24.093Z,47.57
2022-10-18T16:51:26.836Z,47.05
2022-10-18T16:53:35.486Z,46.71
2022-10-18T16:55:38.498Z,47.14
2022-10-18T16:57:40.090Z,46.30
2022-10-18T16:59:48.479Z,45.72
2022-10-18T17:01:50.126Z,45.25
2022-10-18T17:03:52.882Z,44.75
2022-10-18T17:06:01.529Z,44.58
2022-10-18T17:08:03.143Z,45.20
2022-10-18T17:10:05.182Z,44.48
2022-10-18T17:12:13.502Z,44.59
2022-10-18T17:14:15.104Z,45.49
2022-10-18T17:16:19.678Z,45.96
2022-10-18T17:18:32.526Z,45.90
2022-10-18T17:20:34.124Z,46.59
2022-10-18T17:22:35.899Z,46.42
2022-10-18T17:24:44.527Z,46.09
2022-10-18T17:26:46.147Z,46.54
2022-10-18T17:28:53.053Z,46.49
2022-10-18T17:31:01.530Z,46.65
2022-10-18T17:33:03.195Z,46.43
2022-10-18T17:35:05.459Z,47.00
2022-10-18T17:37:14.558Z,46.54
2022-10-18T17:39:16.163Z,46.93
2022-10-18T17:41:17.817Z,46.24
2022-10-18T17:43:25.543Z,46.96
2022-10-18T17:45:27.330Z,46.31
2022-10-18T17:47:29.049Z,47.11
2022-10-18T17:49:37.561Z,46.41
2022-10-18T17:51:40.627Z,46.03
2022-10-18T17:53:42.557Z,46.85
2022-10-18T17:55:50.590Z,45.71
2022-10-18T17:57:52.299Z,46.20
2022-10-18T17:59:55.386Z,46.22
2022-10-18T18:02:03.568Z,46.65
2022-10-18T18:04:05.297Z,46.75
2022-10-18T18:06:17.237Z,46.74
2022-10-18T18:08:25.589Z,46.03
2022-10-18T18:10:27.307Z,47.16
2022-10-18T18:12:29.060Z,47.14
2022-10-18T18:14:37.596Z,47.72
2022-10-18T18:16:42.007Z,48.16
2022-10-18T18:18:44.133Z,47.69
2022-10-18T18:20:58.601Z,46.89
2022-10-18T18:23:00.781Z,47.10
2022-10-18T18:25:02.371Z,48.11
2022-10-18T18:27:10.611Z,47.15
2022-10-18T18:29:13.497Z,47.05
2022-10-18T18:31:18.179Z,48.26
2022-10-18T18:33:26.633Z,47.78
2022-10-18T18:35:28.248Z,47.07
2022-10-18T18:37:29.874Z,48.19
2022-10-18T18:39:41.641Z,47.40
2022-10-18T18:41:43.382Z,49.36
2022-10-18T18:43:49.809Z,47.95
2022-10-18T18:45:58.668Z,47.27
2022-10-18T18:48:00.271Z,47.85
2022-10-18T18:50:02.470Z,47.34
2022-10-18T18:52:10.662Z,49.21
2022-10-18T18:54:14.435Z,48.08
2022-10-18T18:56:19.065Z,49.86
2022-10-18T18:58:27.651Z,47.85
2022-10-18T19:00:29.254Z,47.06
2022-10-18T19:02:30.897Z,48.56
2022-10-18T19:04:39.677Z,47.49
2022-10-18T19:06:46.295Z,47.43
2022-10-18T19:08:49.044Z,48.74
2022-10-18T19:10:56.680Z,47.87
2022-10-18T19:12:58.577Z,47.70
2022-10-18T19:15:00.171Z,49.40
2022-10-18T19:17:08.699Z,48.45
2022-10-18T19:19:16.049Z,48.53
2022-10-18T19:21:18.143Z,48.06
2022-10-18T19:25:33.203Z,47.94
2022-10-18T19:27:35.599Z,47.98
2022-10-18T19:29:45.670Z,47.81
2022-10-18T19:31:48.471Z,49.31
2022-10-18T19:33:59.317Z,48.21
2022-10-18T19:36:07.694Z,48.72
2022-10-18T19:38:09.341Z,48.81
2022-10-18T19:40:11.201Z,48.54
2022-10-18T19:42:25.069Z,48.77
2022-10-18T19:44:30.510Z,47.85
2022-10-18T19:46:32.194Z,47.71
2022-10-18T19:48:40.737Z,48.66
2022-10-18T19:50:42.408Z,47.82
2022-10-18T19:52:44.013Z,48.04
2022-10-18T19:54:51.718Z,48.36
2022-10-18T19:56:53.389Z,47.84
2022-10-18T19:58:56.762Z,47.79
2022-10-18T20:01:06.771Z,47.90
2022-10-18T20:03:08.550Z,48.65
2022-10-18T20:05:10.615Z,48.28
2022-10-18T20:07:18.751Z,48.01
2022-10-18T20:09:21.642Z,47.57
2022-10-18T20:11:27.136Z,48.57
2022-10-18T20:13:35.750Z,47.80
2022-10-18T20:15:37.381Z,47.91
2022-10-18T20:17:39.180Z,48.57
2022-10-18T20:19:47.758Z,47.88
2022-10-18T20:21:49.351Z,47.76
2022-10-18T20:23:50.990Z,48.08
2022-10-18T20:26:07.784Z,48.58
2022-10-18T20:28:22.949Z,47.53
2022-10-18T20:30:24.579Z,47.85
2022-10-18T20:32:32.804Z,47.79
2022-10-18T20:34:34.456Z,48.59
2022-10-18T20:36:37.196Z,47.75
2022-10-18T20:38:46.783Z,47.64
2022-10-18T20:40:48.408Z,48.49
2022-10-18T20:42:51.720Z,48.56
2022-10-18T20:44:59.827Z,49.08
2022-10-18T20:47:01.463Z,48.33
2022-10-18T20:49:04.698Z,47.97
2022-10-18T20:51:14.794Z,47.30
2022-10-18T20:53:16.395Z,48.27
2022-10-18T20:55:18.878Z,48.05
2022-10-18T20:57:26.781Z,47.96
2022-10-18T20:59:28.403Z,47.92
2022-10-18T21:01:32.211Z,49.26
2022-10-18T21:03:42.782Z,49.02
2022-10-18T21:05:44.312Z,49.53
2022-10-18T21:07:45.881Z,48.85
2022-10-18T21:09:53.889Z,48.76
2022-10-18T21:11:56.198Z,49.74
2022-10-18T21:14:02.080Z,49.09
2022-10-18T21:16:11.815Z,48.83
2022-10-18T21:18:13.345Z,49.97
2022-10-18T21:20:14.981Z,49.73
2022-10-18T21:22:22.833Z,50.01
2022-10-18T21:24:25.840Z,48.12
2022-10-18T21:26:28.285Z,48.33
2022-10-18T21:28:36.843Z,48.56
2022-10-18T21:30:38.535Z,48.38
2022-10-18T21:32:40.132Z,47.82
2022-10-18T21:34:48.052Z,48.21
2022-10-18T21:36:49.736Z,48.01
2022-10-18T21:38:52.190Z,48.05
2022-10-18T21:40:59.840Z,47.96
2022-10-18T21:43:01.881Z,47.60
2022-10-18T21:45:09.837Z,48.46
2022-10-18T21:47:11.352Z,48.51
2022-10-18T21:49:14.145Z,48.84
2022-10-18T21:51:24.836Z,47.65
2022-10-18T21:53:26.381Z,47.75
2022-10-18T21:55:27.934Z,47.72
2022-10-18T21:59:42.336Z,47.19
2022-10-18T22:01:45.113Z,47.76
2022-10-18T22:03:55.855Z,47.98
2022-10-18T22:06:02.101Z,47.90
2022-10-18T22:08:04.525Z,48.98
2022-10-18T22:10:12.894Z,48.15
2022-10-18T22:12:14.737Z,48.33
2022-10-18T22:14:16.591Z,48.48
2022-10-18T22:16:24.891Z,48.21
2022-10-18T22:18:26.404Z,48.02
2022-10-18T22:20:28.213Z,49.40
2022-10-18T22:22:35.888Z,48.80
2022-10-18T22:24:37.515Z,48.96
2022-10-18T22:26:41.936Z,49.43
2022-10-18T22:40:04.974Z,49.02
2022-10-18T22:42:06.620Z,48.65
2022-10-18T22:44:09.011Z,50.61
2022-10-18T22:46:19.942Z,49.78
2022-10-18T22:48:21.480Z,49.52
2022-10-18T22:50:23.052Z,49.12
2022-10-18T22:52:31.049Z,49.25
2022-10-18T22:54:32.827Z,48.86
2022-10-18T22:56:34.431Z,49.06
2022-10-18T22:58:42.942Z,48.12
2022-10-18T23:00:44.779Z,48.80
2022-10-18T23:02:49.005Z,48.76
2022-10-18T23:04:56.960Z,47.64
2022-10-18T23:06:58.694Z,47.75
2022-10-18T23:09:02.362Z,47.74
2022-10-18T23:11:09.978Z,48.39
2022-10-18T23:13:11.577Z,47.60
2022-10-18T23:15:13.239Z,49.48
2022-10-18T23:17:20.952Z,48.53
2022-10-18T23:19:22.560Z,48.89
2022-10-18T23:21:26.165Z,49.38
2022-10-18T23:23:36.962Z,48.43
2022-10-18T23:25:38.964Z,49.52
2022-10-18T23:27:40.670Z,49.06
2022-10-18T23:29:48.959Z,48.87
2022-10-18T23:31:50.540Z,49.83
2022-10-18T23:33:54.352Z,49.27
2022-10-18T23:36:01.994Z,48.91
2022-10-18T23:38:03.595Z,49.49
2022-10-18T23:40:05.578Z,50.50
2022-10-18T23:42:13.983Z,50.03
2022-10-18T23:44:15.616Z,50.05
2022-10-18T23:46:18.266Z,49.65
2022-10-18T23:48:25.997Z,49.73
2022-10-18T23:50:27.535Z,50.17
2022-10-18T23:52:29.199Z,50.67
2022-10-18T23:54:37.018Z,50.35
